This is the latest recevied weather packets stored in our database for station/object IW1RID-3. If no packets are shown the sender has not sent any weather packets the latest 10 day(s).
| Time | Temp. | Humidity | Pressure | Rain* | Wind** | Luminosity | Snow |
|---|---|---|---|---|---|---|---|
| 1787791425 | 21.11° C | 74% | 1072.9 hPa | - | - | - | - |
| 1787790220 | 21.67° C | 74% | 1073.1 hPa | - | - | - | - |
| 1787789016 | 21.67° C | 73% | 1073.2 hPa | - | - | - | - |
| 1787787811 | 23.33° C | 65% | 1073.1 hPa | - | - | - | - |
| 1787786606 | 23.33° C | 65% | 1073 hPa | - | - | - | - |
| 1787785402 | 23.33° C | 70% | 1073.1 hPa | - | - | - | - |
| 1787784197 | 23.33° C | 72% | 1073.8 hPa | - | - | - | - |
| 1787782991 | 23.89° C | 75% | 1073.8 hPa | - | - | - | - |
| 1787781787 | 23.33° C | 80% | 1073.8 hPa | - | - | - | - |
| 1787780582 | 23.33° C | 83% | 1074.1 hPa | - | - | - | - |
| 1787779377 | 23.89° C | 80% | 1074.1 hPa | - | - | - | - |
| 1787778173 | 23.89° C | 85% | 1073.9 hPa | - | - | - | - |
| 1787776968 | 23.89° C | 86% | 1074.4 hPa | - | - | - | - |
| 1787775763 | 24.44° C | 85% | 1074.2 hPa | - | - | - | - |
| 1787774558 | 23.89° C | 89% | 1074 hPa | - | - | - | - |
| 1787773354 | 24.44° C | 86% | 1073.9 hPa | - | - | - | - |
| 1787772149 | 25° C | 84% | 1073.3 hPa | - | - | - | - |
| 1787770944 | 25° C | 82% | 1073.1 hPa | - | - | - | - |
| 1787769739 | 25.56° C | 82% | 1073.1 hPa | - | - | - | - |
| 1787768535 | 25.56° C | 81% | 1072.4 hPa | - | - | - | - |
| 1787767330 | 26.67° C | 77% | 1072.7 hPa | - | - | - | - |
| 1787766125 | 26.67° C | 73% | 1072.3 hPa | - | - | - | - |
| 1787764921 | 27.22° C | 72% | 1072.4 hPa | - | - | - | - |
| 1787763716 | 28.89° C | 68% | 1073.7 hPa | - | - | - | - |
| 1787762511 | 27.22° C | 75% | 1074.2 hPa | - | - | - | - |
* Rain since midnight (hover to see other rain measurements)
** Current wind speed in m/s (hover to see current wind gust speed)